createdAt,value
2022-12-08T00:01:42.091Z,23.60
2022-12-08T00:04:10.834Z,18.67
2022-12-08T00:07:00.791Z,22.05
2022-12-08T00:09:37.908Z,21.27
2022-12-08T00:12:09.350Z,21.58
2022-12-08T00:14:39.182Z,20.20
2022-12-08T00:17:10.171Z,21.17
2022-12-08T00:19:39.085Z,23.17
2022-12-08T00:22:09.715Z,21.27
2022-12-08T00:24:39.712Z,18.02
2022-12-08T00:27:09.843Z,20.67
2022-12-08T00:29:38.396Z,22.80
2022-12-08T00:32:07.611Z,18.23
2022-12-08T00:34:36.660Z,22.60
2022-12-08T00:37:04.576Z,16.67
2022-12-08T00:39:35.283Z,19.38
2022-12-08T00:42:15.390Z,17.58
2022-12-08T00:44:46.285Z,16.48
2022-12-08T00:47:16.363Z,17.10
2022-12-08T00:49:47.526Z,21.15
2022-12-08T00:52:15.876Z,18.08
2022-12-08T00:54:45.264Z,20.17
2022-12-08T00:57:14.131Z,15.43
2022-12-08T00:59:42.012Z,24.05
2022-12-08T01:02:10.353Z,19.17
2022-12-08T01:04:40.151Z,21.60
2022-12-08T01:07:08.105Z,22.77
2022-12-08T01:09:36.599Z,21.33
2022-12-08T01:12:07.962Z,20.92
2022-12-08T01:14:36.043Z,23.13
2022-12-08T01:17:06.101Z,23.40
2022-12-08T01:19:34.059Z,27.52
2022-12-08T01:22:02.493Z,21.48
2022-12-08T01:24:31.041Z,21.17
2022-12-08T01:26:59.459Z,26.65
2022-12-08T01:29:29.086Z,24.58
2022-12-08T01:31:57.952Z,21.63
2022-12-08T01:34:25.950Z,23.83
2022-12-08T01:36:54.316Z,24.48
2022-12-08T01:39:22.281Z,23.08
2022-12-08T01:41:50.220Z,28.30
2022-12-08T01:44:59.270Z,27.73
2022-12-08T01:47:34.479Z,23.52
2022-12-08T01:50:04.445Z,21.48
2022-12-08T01:52:37.616Z,24.17
2022-12-08T01:55:10.637Z,24.38
2022-12-08T01:57:44.058Z,19.77
2022-12-08T02:00:17.325Z,21.65
2022-12-08T02:02:55.289Z,24.35
2022-12-08T02:05:27.374Z,27.85
2022-12-08T02:07:56.879Z,23.20
2022-12-08T02:10:26.435Z,24.33
2022-12-08T02:12:57.409Z,23.58
2022-12-08T02:15:33.403Z,27.80
2022-12-08T02:18:18.810Z,24.00
2022-12-08T02:20:57.264Z,29.20
2022-12-08T02:23:36.197Z,24.85
2022-12-08T02:26:34.139Z,27.35
2022-12-08T02:29:26.405Z,27.63
2022-12-08T02:32:11.370Z,22.35
2022-12-08T02:34:47.582Z,26.80
2022-12-08T02:37:22.001Z,21.20
2022-12-08T02:39:54.577Z,17.50
2022-12-08T02:42:29.075Z,14.05
2022-12-08T02:45:03.774Z,24.05
2022-12-08T02:47:34.247Z,35.33
2022-12-08T02:50:04.012Z,24.08
2022-12-08T02:52:53.694Z,24.33
2022-12-08T02:55:28.763Z,16.13
2022-12-08T02:58:24.254Z,19.85
2022-12-08T03:01:12.724Z,23.92
2022-12-08T03:03:48.863Z,23.23
2022-12-08T03:06:29.907Z,26.17
2022-12-08T03:09:04.314Z,29.17
2022-12-08T03:11:41.066Z,28.60
2022-12-08T03:14:13.839Z,27.38
2022-12-08T03:16:44.728Z,26.00
2022-12-08T03:19:20.423Z,27.70
2022-12-08T03:21:52.437Z,27.83
2022-12-08T03:24:24.505Z,25.02
2022-12-08T03:26:58.591Z,30.98
2022-12-08T03:29:27.956Z,31.48
2022-12-08T03:31:59.259Z,31.48
2022-12-08T03:34:31.282Z,27.10
2022-12-08T03:37:01.847Z,31.65
2022-12-08T03:39:31.769Z,39.10
2022-12-08T03:41:59.656Z,33.20
2022-12-08T03:44:28.043Z,30.85
2022-12-08T03:46:56.376Z,30.88
2022-12-08T03:49:24.328Z,35.08
2022-12-08T03:51:52.890Z,38.20
2022-12-08T03:54:22.202Z,34.17
2022-12-08T03:56:50.200Z,35.47
2022-12-08T03:59:19.063Z,39.63
2022-12-08T04:01:47.000Z,38.83
2022-12-08T04:04:15.450Z,35.92
2022-12-08T04:06:43.822Z,31.90
2022-12-08T04:09:11.841Z,31.02
2022-12-08T04:11:41.817Z,30.98
2022-12-08T04:14:10.389Z,33.38
2022-12-08T04:16:38.416Z,35.42
2022-12-08T04:19:07.463Z,36.38
2022-12-08T04:21:35.430Z,35.10
2022-12-08T04:24:04.303Z,34.33
2022-12-08T04:26:32.200Z,34.63
2022-12-08T04:29:01.999Z,33.55
2022-12-08T04:31:30.398Z,27.67
2022-12-08T04:33:58.476Z,34.75
2022-12-08T04:36:26.875Z,32.17
2022-12-08T04:38:55.105Z,35.28
2022-12-08T04:41:23.019Z,36.92
2022-12-08T04:43:52.121Z,35.25
2022-12-08T04:46:21.450Z,34.50
2022-12-08T04:48:50.322Z,33.13
2022-12-08T04:51:19.613Z,30.45
2022-12-08T04:53:48.803Z,31.98
2022-12-08T04:56:18.844Z,32.72
2022-12-08T04:58:47.689Z,35.28
2022-12-08T05:01:16.644Z,34.25
2022-12-08T05:03:45.972Z,28.83
2022-12-08T05:06:15.091Z,30.20
2022-12-08T05:08:43.885Z,27.98
2022-12-08T05:11:13.467Z,29.83
2022-12-08T05:13:41.463Z,30.98
2022-12-08T05:16:12.863Z,33.55
2022-12-08T05:18:42.024Z,29.30
2022-12-08T05:21:11.830Z,35.77
2022-12-08T05:23:39.856Z,30.77
2022-12-08T05:26:08.031Z,32.83
2022-12-08T05:28:41.966Z,28.70
2022-12-08T05:31:11.257Z,35.03
2022-12-08T05:33:39.657Z,29.15
2022-12-08T05:36:08.939Z,28.52
2022-12-08T05:38:38.214Z,29.20
2022-12-08T05:41:07.387Z,28.40
2022-12-08T05:43:35.955Z,29.08
2022-12-08T05:46:04.264Z,31.00
2022-12-08T05:48:32.385Z,30.30
2022-12-08T05:51:01.421Z,29.10
2022-12-08T05:53:29.618Z,24.48
2022-12-08T05:55:59.857Z,25.55
2022-12-08T05:58:27.829Z,25.40
2022-12-08T06:00:57.112Z,20.58
2022-12-08T06:03:25.073Z,24.13
2022-12-08T06:05:53.525Z,25.85
2022-12-08T06:08:22.183Z,27.08
2022-12-08T06:10:50.358Z,25.88
2022-12-08T06:13:20.217Z,30.23
2022-12-08T06:15:48.238Z,30.52
2022-12-08T06:18:16.129Z,30.33
2022-12-08T06:20:45.923Z,34.17
2022-12-08T06:23:13.805Z,33.00
2022-12-08T06:25:42.670Z,34.80
2022-12-08T06:28:10.617Z,33.13
2022-12-08T06:30:40.760Z,38.00
2022-12-08T06:33:08.680Z,37.45
2022-12-08T06:35:38.064Z,39.63
2022-12-08T06:38:06.409Z,36.60
2022-12-08T06:40:34.400Z,36.03
2022-12-08T06:43:02.742Z,31.98
2022-12-08T06:45:30.780Z,33.35
2022-12-08T06:48:00.110Z,31.48
2022-12-08T06:50:29.105Z,33.72
2022-12-08T06:53:04.823Z,41.65
2022-12-08T06:55:58.698Z,40.45
2022-12-08T06:58:24.535Z,35.58
2022-12-08T07:00:53.016Z,21.80
2022-12-08T07:03:22.404Z,31.80
2022-12-08T07:05:50.331Z,31.52
2022-12-08T07:08:19.279Z,26.02
2022-12-08T07:10:47.730Z,29.33
2022-12-08T07:13:16.223Z,31.83
2022-12-08T07:15:44.189Z,32.38
2022-12-08T07:18:13.127Z,33.53
2022-12-08T07:20:42.432Z,31.60
2022-12-08T07:23:10.847Z,34.97
2022-12-08T07:25:39.231Z,34.50
2022-12-08T07:28:11.353Z,35.35
2022-12-08T07:30:40.845Z,31.60
2022-12-08T07:33:08.783Z,31.00
2022-12-08T07:35:37.735Z,31.17
2022-12-08T07:38:07.471Z,33.67
2022-12-08T07:40:35.776Z,27.30
2022-12-08T07:43:04.160Z,30.45
2022-12-08T07:45:32.181Z,28.15
2022-12-08T07:48:00.350Z,28.83
2022-12-08T07:50:29.450Z,21.17
2022-12-08T07:52:57.392Z,17.52
2022-12-08T07:55:27.430Z,26.73
2022-12-08T08:00:23.239Z,22.83
2022-12-08T08:02:52.415Z,28.55
2022-12-08T08:05:20.722Z,25.40
2022-12-08T08:07:50.272Z,22.83
2022-12-08T08:10:24.514Z,25.48
2022-12-08T08:12:54.739Z,22.10
2022-12-08T08:15:22.707Z,23.73
2022-12-08T08:17:52.454Z,24.30
2022-12-08T08:20:21.604Z,21.73
2022-12-08T08:22:50.736Z,21.63
2022-12-08T08:25:20.203Z,25.52
2022-12-08T08:27:49.068Z,22.55
2022-12-08T08:30:20.965Z,19.50
2022-12-08T08:32:51.066Z,19.95
2022-12-08T08:35:25.281Z,22.42
2022-12-08T08:37:54.141Z,20.67
2022-12-08T08:40:22.297Z,21.75
2022-12-08T08:42:50.747Z,20.50
2022-12-08T08:45:20.020Z,19.65
2022-12-08T08:47:48.049Z,17.52
2022-12-08T08:50:16.029Z,16.40
2022-12-08T08:52:44.885Z,15.52
2022-12-08T08:55:12.815Z,17.85
2022-12-08T08:57:41.746Z,18.15
2022-12-08T09:00:11.665Z,17.88
2022-12-08T09:05:10.092Z,27.30
2022-12-08T09:07:38.166Z,17.98
2022-12-08T09:10:07.735Z,14.77
2022-12-08T09:12:36.956Z,17.95
2022-12-08T09:15:05.545Z,16.88
2022-12-08T09:17:34.423Z,14.70
2022-12-08T09:20:04.021Z,13.60
2022-12-08T09:22:32.675Z,15.10
2022-12-08T09:25:00.701Z,15.02
2022-12-08T09:27:29.165Z,14.13
2022-12-08T09:29:57.143Z,17.00
2022-12-08T09:32:27.156Z,13.70
2022-12-08T09:34:55.328Z,13.77
2022-12-08T09:37:25.111Z,13.38
2022-12-08T09:39:53.742Z,14.35
2022-12-08T09:42:35.968Z,14.85
2022-12-08T09:45:07.117Z,13.45
2022-12-08T09:47:40.193Z,15.00
2022-12-08T09:50:15.364Z,7.88
2022-12-08T09:52:50.426Z,12.95
2022-12-08T09:55:23.953Z,9.60
2022-12-08T09:58:01.929Z,14.27
2022-12-08T10:00:30.841Z,12.90
2022-12-08T10:03:00.004Z,14.43
2022-12-08T10:05:30.500Z,12.93
2022-12-08T10:08:08.671Z,14.68
2022-12-08T10:10:41.044Z,8.40
2022-12-08T10:13:20.589Z,14.85
2022-12-08T10:18:28.233Z,11.82
2022-12-08T10:21:01.307Z,14.93
2022-12-08T10:23:35.932Z,9.20
2022-12-08T10:26:07.725Z,12.02
2022-12-08T10:28:41.400Z,11.70
2022-12-08T10:31:17.945Z,13.40
2022-12-08T10:33:48.467Z,15.55
2022-12-08T10:36:16.492Z,13.27
2022-12-08T10:38:46.287Z,16.88
2022-12-08T10:41:18.482Z,12.10
2022-12-08T10:43:49.879Z,12.85
2022-12-08T10:46:21.214Z,12.70
2022-12-08T10:48:55.692Z,14.00
2022-12-08T10:51:26.395Z,13.35
2022-12-08T10:53:56.969Z,12.65
2022-12-08T10:56:27.562Z,11.45
2022-12-08T10:59:17.578Z,13.80
2022-12-08T11:01:48.597Z,12.45
2022-12-08T11:04:19.999Z,11.90
2022-12-08T11:06:49.576Z,9.45
2022-12-08T11:09:32.545Z,10.15
2022-12-08T11:12:01.744Z,12.20
2022-12-08T11:14:32.579Z,11.18
2022-12-08T11:17:06.937Z,10.98
2022-12-08T11:19:39.311Z,9.68
2022-12-08T11:22:22.500Z,9.27
2022-12-08T11:25:01.824Z,9.57
2022-12-08T11:27:30.685Z,12.27
2022-12-08T11:29:58.575Z,7.85
2022-12-08T11:32:27.044Z,8.82
2022-12-08T11:35:00.565Z,7.68
2022-12-08T11:37:35.219Z,7.78
2022-12-08T11:40:09.190Z,6.68
2022-12-08T11:42:50.263Z,8.75
2022-12-08T11:45:26.003Z,5.97
2022-12-08T11:48:04.861Z,8.13
2022-12-08T11:50:39.973Z,6.60
2022-12-08T11:53:16.940Z,8.00
2022-12-08T11:55:50.419Z,5.40
2022-12-08T11:58:23.023Z,6.63
2022-12-08T12:00:51.419Z,9.50
2022-12-08T12:03:30.120Z,7.78
2022-12-08T12:06:54.268Z,6.75
2022-12-08T12:09:37.000Z,5.43
2022-12-08T12:12:14.302Z,5.72
2022-12-08T12:15:19.877Z,6.80
2022-12-08T12:17:51.925Z,5.43
2022-12-08T12:20:28.391Z,5.78
2022-12-08T12:23:01.740Z,5.60
2022-12-08T12:25:31.162Z,6.18
2022-12-08T12:28:04.297Z,8.35
2022-12-08T12:30:52.600Z,7.05
2022-12-08T12:33:21.628Z,6.15
2022-12-08T12:35:49.866Z,5.78
2022-12-08T12:38:42.322Z,4.82
2022-12-08T12:41:11.756Z,6.15
2022-12-08T12:46:54.995Z,5.43
2022-12-08T12:49:53.455Z,8.68
2022-12-08T12:52:44.541Z,5.15
2022-12-08T12:55:52.920Z,5.15
2022-12-08T12:58:34.589Z,6.00
2022-12-08T13:01:36.639Z,6.65
2022-12-08T13:04:08.872Z,7.22
2022-12-08T13:06:42.582Z,5.57
2022-12-08T13:09:22.886Z,7.40
2022-12-08T13:11:54.156Z,5.28
2022-12-08T13:14:38.149Z,4.60
2022-12-08T13:17:13.850Z,6.43
2022-12-08T13:19:48.848Z,7.43
2022-12-08T13:22:50.571Z,8.50
2022-12-08T13:25:51.221Z,8.40
2022-12-08T13:28:26.809Z,7.63
2022-12-08T13:30:56.368Z,6.93
2022-12-08T13:33:28.536Z,8.55
2022-12-08T13:36:23.320Z,8.88
2022-12-08T13:38:57.593Z,6.18
2022-12-08T13:41:34.185Z,6.22
2022-12-08T13:58:35.092Z,5.97
2022-12-08T14:01:07.989Z,7.40
2022-12-08T14:04:04.710Z,6.22
2022-12-08T14:06:37.941Z,7.03
2022-12-08T14:09:12.983Z,7.00
2022-12-08T14:11:44.472Z,7.68
2022-12-08T14:14:32.693Z,6.70
2022-12-08T14:17:08.403Z,6.88
2022-12-08T14:19:36.582Z,5.63
2022-12-08T14:22:12.569Z,6.35
2022-12-08T14:24:46.290Z,5.00
2022-12-08T14:27:19.013Z,5.57
2022-12-08T14:29:48.491Z,5.75
2022-12-08T14:32:26.460Z,9.98
2022-12-08T14:34:57.723Z,7.03
2022-12-08T14:37:27.929Z,6.38
2022-12-08T14:40:04.321Z,5.78
2022-12-08T14:42:32.600Z,7.88
2022-12-08T14:45:04.945Z,5.63
2022-12-08T14:47:34.527Z,7.43
2022-12-08T14:50:03.707Z,5.45
2022-12-08T14:52:33.164Z,6.70
2022-12-08T14:55:02.548Z,7.30
2022-12-08T14:57:36.753Z,6.60
2022-12-08T15:00:12.242Z,7.85
2022-12-08T15:02:47.344Z,6.22
2022-12-08T15:05:20.147Z,9.10
2022-12-08T15:07:51.863Z,6.50
2022-12-08T15:10:25.176Z,6.45
2022-12-08T15:13:03.277Z,7.30
2022-12-08T15:15:32.970Z,7.50
2022-12-08T15:18:17.213Z,7.43
2022-12-08T15:20:47.703Z,8.10
2022-12-08T15:23:23.025Z,6.97
2022-12-08T15:25:52.766Z,8.25
2022-12-08T15:28:26.696Z,8.95
2022-12-08T15:30:59.094Z,10.27
2022-12-08T15:33:27.891Z,13.43
2022-12-08T15:35:55.831Z,9.05
2022-12-08T15:38:25.505Z,8.07
2022-12-08T15:40:55.834Z,9.45
2022-12-08T15:43:24.174Z,9.60
2022-12-08T15:45:59.374Z,10.32
2022-12-08T15:48:30.220Z,9.90
2022-12-08T15:50:59.025Z,11.68
2022-12-08T15:53:28.273Z,12.05
2022-12-08T15:56:26.325Z,12.05
2022-12-08T15:58:56.956Z,12.45
2022-12-08T16:01:26.641Z,12.10
2022-12-08T16:04:47.331Z,13.00
2022-12-08T16:09:36.187Z,15.27
2022-12-08T16:12:25.309Z,13.25
2022-12-08T16:17:42.988Z,14.77
2022-12-08T16:20:14.922Z,15.60
2022-12-08T16:23:13.047Z,19.02
2022-12-08T16:25:52.841Z,17.20
2022-12-08T16:28:52.745Z,14.15
2022-12-08T16:31:15.076Z,14.95
2022-12-08T16:33:44.679Z,14.95
2022-12-08T16:36:13.079Z,13.60
2022-12-08T16:38:41.067Z,13.15
2022-12-08T16:41:32.790Z,15.43
2022-12-08T16:44:04.462Z,15.13
2022-12-08T16:46:33.306Z,15.25
2022-12-08T16:49:01.235Z,14.00
2022-12-08T16:51:30.188Z,15.85
2022-12-08T16:53:58.784Z,15.88
2022-12-08T16:56:32.632Z,11.52
2022-12-08T16:59:04.057Z,12.30
2022-12-08T17:04:29.731Z,16.45
2022-12-08T17:06:52.798Z,15.55
2022-12-08T17:09:21.704Z,15.65
2022-12-08T17:11:49.685Z,14.45
2022-12-08T17:14:19.548Z,16.58
2022-12-08T17:16:48.030Z,15.75
2022-12-08T17:19:17.282Z,16.17
2022-12-08T17:21:45.517Z,15.90
2022-12-08T17:24:18.550Z,19.17
2022-12-08T17:26:52.151Z,19.25
2022-12-08T17:29:21.523Z,19.08
2022-12-08T17:31:49.631Z,20.92
2022-12-08T17:34:18.845Z,23.55
2022-12-08T17:36:47.274Z,20.90
2022-12-08T17:39:18.575Z,22.08
2022-12-08T17:41:48.380Z,27.05
2022-12-08T17:44:18.238Z,23.92
2022-12-08T17:46:53.050Z,22.88
2022-12-08T17:49:23.463Z,23.33
2022-12-08T17:51:55.178Z,20.75
2022-12-08T17:54:23.755Z,23.15
2022-12-08T17:56:52.225Z,22.80
2022-12-08T17:59:20.492Z,24.45
2022-12-08T18:01:50.373Z,22.02
2022-12-08T18:06:46.430Z,24.05
2022-12-08T18:09:15.736Z,29.02
2022-12-08T18:11:46.149Z,29.80
2022-12-08T18:14:16.642Z,26.70
2022-12-08T18:16:47.665Z,28.38
2022-12-08T18:19:18.129Z,30.60
2022-12-08T18:24:18.965Z,30.10
2022-12-08T18:26:48.361Z,29.48
2022-12-08T18:29:16.328Z,27.77
2022-12-08T18:34:14.589Z,28.92
2022-12-08T18:36:44.012Z,29.95
2022-12-08T18:39:22.828Z,32.00
2022-12-08T18:41:50.949Z,29.08
2022-12-08T18:44:19.322Z,31.25
2022-12-08T18:46:48.459Z,29.48
2022-12-08T18:49:18.711Z,28.02
2022-12-08T18:51:48.985Z,30.35
2022-12-08T18:54:16.941Z,32.15
2022-12-08T18:56:45.469Z,26.55
2022-12-08T18:59:14.495Z,25.90
2022-12-08T19:01:42.738Z,27.63
2022-12-08T19:07:01.043Z,23.40
2022-12-08T19:09:29.182Z,26.77
2022-12-08T19:11:58.019Z,27.67
2022-12-08T19:14:28.729Z,24.63
2022-12-08T19:16:57.662Z,24.13
2022-12-08T19:19:26.176Z,26.65
2022-12-08T19:21:54.645Z,21.17
2022-12-08T19:24:24.237Z,23.25
2022-12-08T19:26:53.379Z,24.13
2022-12-08T19:29:21.414Z,23.05
2022-12-08T19:31:49.969Z,23.02
2022-12-08T19:34:18.458Z,23.50
2022-12-08T19:36:46.886Z,28.83
2022-12-08T19:39:35.582Z,25.63
2022-12-08T19:42:22.973Z,27.98
2022-12-08T19:44:55.658Z,31.48
2022-12-08T19:47:25.649Z,26.85
2022-12-08T19:49:54.804Z,20.08
2022-12-08T19:52:23.797Z,19.98
2022-12-08T19:54:51.718Z,20.45
2022-12-08T19:57:21.943Z,18.40
2022-12-08T19:59:54.755Z,18.35
2022-12-08T20:02:24.562Z,20.40
2022-12-08T20:04:53.115Z,22.90
2022-12-08T20:07:21.551Z,19.90
2022-12-08T20:09:49.869Z,16.40
2022-12-08T20:12:18.235Z,22.45
2022-12-08T20:14:47.729Z,18.85
2022-12-08T20:17:16.220Z,20.33
2022-12-08T20:19:44.169Z,19.23
2022-12-08T20:22:12.593Z,19.35
2022-12-08T20:24:40.896Z,17.45
2022-12-08T20:27:09.400Z,19.55
2022-12-08T20:29:37.299Z,18.77
2022-12-08T20:32:07.364Z,22.30
2022-12-08T20:34:36.263Z,16.65
2022-12-08T20:37:04.542Z,20.83
2022-12-08T20:39:33.351Z,19.17
2022-12-08T20:42:01.348Z,20.35
2022-12-08T20:44:30.285Z,20.98
2022-12-08T20:46:58.638Z,19.30
2022-12-08T20:49:34.261Z,21.38
2022-12-08T20:52:03.618Z,17.23
2022-12-08T20:54:31.604Z,19.40
2022-12-08T20:57:00.470Z,20.05
2022-12-08T20:59:29.598Z,20.33
2022-12-08T21:01:58.483Z,21.73
2022-12-08T21:04:28.140Z,20.13
2022-12-08T21:06:57.577Z,19.98
2022-12-08T21:09:25.594Z,22.85
2022-12-08T21:11:54.326Z,20.50
2022-12-08T21:14:22.245Z,20.83
2022-12-08T21:16:51.593Z,23.38
2022-12-08T21:19:19.971Z,18.83
2022-12-08T21:21:51.245Z,19.52
2022-12-08T21:24:19.783Z,19.65
2022-12-08T21:26:48.019Z,18.90
2022-12-08T21:29:16.999Z,20.90
2022-12-08T21:31:45.145Z,22.02
2022-12-08T21:34:13.801Z,22.17
2022-12-08T21:36:42.831Z,18.52
2022-12-08T21:39:13.423Z,26.93
2022-12-08T21:41:59.529Z,22.08
2022-12-08T21:44:29.378Z,27.88
2022-12-08T21:46:58.063Z,25.90
2022-12-08T21:49:26.247Z,35.63
2022-12-08T21:51:55.056Z,35.53
2022-12-08T21:54:25.604Z,40.17
2022-12-08T21:56:53.805Z,32.58
2022-12-08T21:59:21.938Z,41.25
2022-12-08T22:01:50.543Z,36.95
2022-12-08T22:04:21.517Z,40.20
2022-12-08T22:06:50.742Z,33.83
2022-12-08T22:09:19.681Z,40.53
2022-12-08T22:11:49.316Z,44.03
2022-12-08T22:14:18.934Z,43.78
2022-12-08T22:16:47.025Z,38.60
2022-12-08T22:19:15.655Z,41.92
2022-12-08T22:21:44.433Z,35.00
2022-12-08T22:24:12.613Z,36.08
2022-12-08T22:26:41.704Z,34.75
2022-12-08T22:29:11.081Z,37.17
2022-12-08T22:31:39.914Z,42.38
2022-12-08T22:34:07.978Z,38.53
2022-12-08T22:36:36.824Z,44.60
2022-12-08T22:39:05.912Z,45.30
2022-12-08T22:41:34.036Z,45.45
2022-12-08T22:44:02.349Z,42.90
2022-12-08T22:46:31.833Z,43.00
2022-12-08T22:51:28.421Z,40.30
2022-12-08T22:53:56.861Z,45.20
2022-12-08T22:56:25.454Z,46.17
2022-12-08T22:58:53.449Z,48.05
2022-12-08T23:01:24.244Z,57.13
2022-12-08T23:03:54.902Z,52.65
2022-12-08T23:06:23.220Z,55.97
2022-12-08T23:08:52.548Z,54.20
2022-12-08T23:11:22.200Z,52.15
2022-12-08T23:13:50.708Z,50.35
2022-12-08T23:16:19.108Z,44.58
2022-12-08T23:18:48.417Z,42.97
2022-12-08T23:21:20.066Z,37.78
2022-12-08T23:23:49.116Z,45.95
2022-12-08T23:26:19.827Z,43.83
2022-12-08T23:28:49.222Z,41.45
2022-12-08T23:31:17.809Z,40.60
2022-12-08T23:33:46.804Z,32.45
2022-12-08T23:36:18.400Z,34.63
2022-12-08T23:38:46.538Z,32.22
2022-12-08T23:41:16.863Z,36.65
2022-12-08T23:43:46.841Z,35.92
2022-12-08T23:46:17.025Z,35.80
2022-12-08T23:48:48.121Z,44.58
2022-12-08T23:51:18.474Z,35.30
2022-12-08T23:53:47.447Z,37.28
2022-12-08T23:56:18.012Z,36.00
2022-12-08T23:58:46.737Z,38.45
